Time;durP1;ratioP1;P1;durP2;ratioP2;P2;SDS_P1;SDS_P2;PMS_P1;PMS_P2;Temp;Humidity;BMP_temperature;BMP_pressure;BME280_temperature;BME280_humidity;BME280_pressure;Samples;Min_cycle;Max_cycle;Signal;HPM_P1;HPM_P2
2022/11/30 00:01:32;;;;;;;37.00;13.20;;;;;;;8.08;92.06;101556.81;4986472;28;20041;-68
2022/11/30 00:03:58;;;;;;;30.95;11.30;;;;;;;8.08;91.84;101549.56;4986666;28;20030;-68
2022/11/30 00:06:24;;;;;;;38.67;12.43;;;;;;;8.09;91.80;101564.53;4977081;28;20525;-68
2022/11/30 00:08:54;;;;;;;37.42;10.45;;;;;;;8.08;91.83;101554.94;4978775;28;20037;-68
2022/11/30 00:11:21;;;;;;;30.05;12.27;;;;;;;8.11;91.67;101558.84;4980202;28;20398;-68
2022/11/30 00:13:49;;;;;;;29.50;10.82;;;;;;;8.04;91.65;101556.66;4959568;28;20144;-68
2022/11/30 00:16:15;;;;;;;29.38;12.43;;;;;;;8.09;91.93;101556.50;4979908;28;20061;-68
2022/11/30 00:18:40;;;;;;;34.45;11.77;;;;;;;8.06;91.83;101551.78;4983135;28;20111;-68
2022/11/30 00:21:09;;;;;;;26.40;11.73;;;;;;;8.16;91.53;101547.97;4978375;28;20117;-68
2022/11/30 00:23:36;;;;;;;23.55;9.55;;;;;;;8.16;91.51;101558.72;4982611;28;20039;-69
2022/11/30 00:26:04;;;;;;;27.48;12.10;;;;;;;8.18;91.11;101556.50;4984561;28;20034;-69
2022/11/30 00:28:31;;;;;;;31.63;11.65;;;;;;;8.13;91.63;101551.28;4983220;28;20034;-69
2022/11/30 00:31:02;;;;;;;28.77;10.82;;;;;;;8.14;91.53;101561.72;4989133;28;20065;-69
2022/11/30 00:33:28;;;;;;;29.70;10.82;;;;;;;8.12;91.60;101569.28;4981373;28;20113;-69
2022/11/30 00:35:58;;;;;;;24.35;11.35;;;;;;;8.00;92.01;101565.66;4974718;28;20185;-69
2022/11/30 00:38:24;;;;;;;30.65;11.23;;;;;;;8.06;91.63;101570.56;4961661;28;20026;-69
2022/11/30 00:40:50;;;;;;;32.17;11.35;;;;;;;8.12;91.14;101555.09;4975001;28;20038;-69
2022/11/30 00:43:15;;;;;;;34.45;11.95;;;;;;;8.05;91.62;101562.81;4983421;28;20034;-69
2022/11/30 00:45:41;;;;;;;35.85;13.18;;;;;;;7.94;91.68;101556.16;4979599;28;20041;-69
2022/11/30 00:48:06;;;;;;;29.45;11.93;;;;;;;7.98;91.59;101557.13;4977194;28;20363;-69
2022/11/30 00:50:32;;;;;;;29.63;12.15;;;;;;;7.95;91.92;101555.88;4983595;28;20483;-69
2022/11/30 00:52:58;;;;;;;27.15;12.80;;;;;;;7.98;91.68;101551.75;4982656;28;20180;-69
2022/11/30 00:55:23;;;;;;;26.27;11.15;;;;;;;8.00;91.96;101560.28;4980668;28;20030;-69
2022/11/30 00:57:49;;;;;;;24.30;10.55;;;;;;;8.05;92.14;101554.78;5001646;28;20033;-69
2022/11/30 01:00:14;;;;;;;27.90;11.23;;;;;;;8.01;92.14;101557.28;4978340;28;20034;-69
2022/11/30 01:02:42;;;;;;;30.27;10.68;;;;;;;8.01;92.20;101546.53;4986885;28;20042;-69
2022/11/30 01:05:08;;;;;;;35.03;12.77;;;;;;;7.95;91.71;101549.72;4980013;28;20039;-69
2022/11/30 01:07:33;;;;;;;25.52;11.55;;;;;;;7.98;92.30;101557.91;4986295;28;20050;-69
2022/11/30 01:09:59;;;;;;;34.35;12.40;;;;;;;7.94;92.08;101553.50;4978295;28;20085;-69
2022/11/30 01:12:24;;;;;;;28.40;10.75;;;;;;;7.95;92.47;101565.81;4983764;28;20037;-69
2022/11/30 01:14:50;;;;;;;32.38;11.55;;;;;;;7.94;92.31;101572.25;5005704;28;20061;-69
2022/11/30 01:17:15;;;;;;;35.35;13.82;;;;;;;7.93;92.78;101576.84;4978118;28;20038;-69
2022/11/30 01:19:40;;;;;;;31.30;11.85;;;;;;;7.93;92.35;101566.13;5004922;28;20042;-69
2022/11/30 01:22:06;;;;;;;31.02;12.20;;;;;;;8.00;92.21;101571.00;4978001;28;20034;-67
2022/11/30 01:24:31;;;;;;;41.08;13.63;;;;;;;8.01;92.41;101575.28;4981786;28;20045;-67
2022/11/30 01:26:57;;;;;;;30.35;11.48;;;;;;;7.97;92.36;101572.44;4985469;28;20073;-68
2022/11/30 01:29:22;;;;;;;32.05;13.10;;;;;;;7.98;92.51;101575.91;4974858;28;20035;-68
2022/11/30 01:31:48;;;;;;;34.50;11.70;;;;;;;7.98;92.32;101581.25;4976136;28;20039;-68
2022/11/30 01:34:13;;;;;;;30.92;13.73;;;;;;;8.06;92.11;101569.75;4979611;28;20499;-67
2022/11/30 01:36:39;;;;;;;37.30;12.63;;;;;;;8.07;92.17;101577.47;4992332;28;20044;-68
2022/11/30 01:39:08;;;;;;;26.67;10.77;;;;;;;8.06;92.03;101575.13;4979339;28;20027;-68
2022/11/30 01:41:34;;;;;;;35.50;12.48;;;;;;;8.02;92.08;101564.22;4990256;28;20570;-67
2022/11/30 01:44:06;;;;;;;28.63;11.18;;;;;;;8.03;92.22;101575.75;4992041;28;20113;-68
2022/11/30 01:46:41;;;;;;;36.05;12.25;;;;;;;8.04;92.39;101569.28;4983060;28;20034;-68
2022/11/30 01:49:09;;;;;;;38.88;11.43;;;;;;;8.10;91.84;101570.69;4977900;28;20386;-67
2022/11/30 01:51:38;;;;;;;30.40;11.65;;;;;;;8.12;91.77;101568.50;4989923;28;20061;-68
2022/11/30 01:54:06;;;;;;;34.70;12.57;;;;;;;8.00;91.85;101579.06;4988921;28;20084;-68
2022/11/30 01:56:32;;;;;;;44.30;15.10;;;;;;;7.92;92.27;101580.63;4996476;28;20092;-67
2022/11/30 01:58:58;;;;;;;37.30;12.38;;;;;;;7.93;92.57;101587.59;4986927;28;20027;-67
2022/11/30 02:01:24;;;;;;;31.20;13.18;;;;;;;7.95;92.30;101584.56;4978368;28;20041;-68
2022/11/30 02:04:18;;;;;;;32.33;12.95;;;;;;;7.99;92.14;101569.44;4983541;28;20042;-67
2022/11/30 02:06:44;;;;;;;41.90;11.77;;;;;;;7.92;92.03;101577.94;4957086;28;20129;-68
2022/11/30 02:09:11;;;;;;;27.70;11.15;;;;;;;7.95;92.25;101581.91;4989671;28;20034;-67
2022/11/30 02:11:36;;;;;;;33.42;10.98;;;;;;;7.88;92.24;101584.25;4989535;28;20129;-67
2022/11/30 02:14:36;;;;;;;34.50;12.27;;;;;;;7.85;92.63;101582.19;4983533;28;20129;-68
2022/11/30 02:17:10;;;;;;;24.25;9.80;;;;;;;7.81;93.04;101581.25;4979451;28;20035;-67
2022/11/30 02:20:00;;;;;;;26.63;10.77;;;;;;;7.85;92.62;101577.63;4977582;28;20077;-67
2022/11/30 02:23:03;;;;;;;28.52;11.15;;;;;;;7.96;92.27;101578.91;4986656;28;20043;-67
2022/11/30 02:25:46;;;;;;;32.58;11.40;;;;;;;7.98;92.05;101574.00;4988032;28;20502;-67
2022/11/30 02:28:35;;;;;;;30.38;11.77;;;;;;;7.99;91.92;101572.88;4972503;28;20054;-68
2022/11/30 02:31:03;;;;;;;32.63;11.95;;;;;;;7.89;91.75;101567.84;4981521;28;20338;-67
2022/11/30 02:33:31;;;;;;;29.30;11.27;;;;;;;7.79;92.61;101564.66;4990659;28;20465;-67
2022/11/30 02:35:59;;;;;;;36.08;11.73;;;;;;;7.82;92.90;101566.75;4980312;28;20101;-67
2022/11/30 02:38:26;;;;;;;31.92;12.55;;;;;;;7.84;92.37;101567.22;4983634;28;20411;-67
2022/11/30 02:40:51;;;;;;;28.05;11.52;;;;;;;7.86;92.63;101568.47;4986261;28;20045;-67
2022/11/30 02:43:20;;;;;;;30.45;12.57;;;;;;;7.82;92.31;101561.38;4980622;28;20447;-67
2022/11/30 02:46:04;;;;;;;29.20;11.32;;;;;;;7.85;92.54;101564.22;4985831;28;20066;-67
2022/11/30 02:48:42;;;;;;;25.08;9.25;;;;;;;7.84;93.12;101567.22;4988041;28;20027;-68
2022/11/30 02:51:10;;;;;;;35.35;14.18;;;;;;;7.88;92.94;101568.16;4980707;28;20031;-67
2022/11/30 02:53:36;;;;;;;27.20;11.20;;;;;;;7.92;92.93;101575.25;4983948;28;20047;-68
2022/11/30 02:56:02;;;;;;;37.10;11.77;;;;;;;7.94;92.45;101567.69;4981266;28;20156;-68
2022/11/30 02:58:28;;;;;;;24.70;10.82;;;;;;;7.85;92.61;101571.47;4989785;28;20041;-68
2022/11/30 03:00:53;;;;;;;31.10;11.05;;;;;;;7.82;93.05;101574.78;4972653;28;20038;-68
2022/11/30 03:03:18;;;;;;;35.40;12.98;;;;;;;7.85;93.20;101580.31;4991487;28;20383;-68
2022/11/30 03:05:47;;;;;;;35.90;12.13;;;;;;;7.86;93.10;101576.50;4991163;28;20041;-68
2022/11/30 03:08:12;;;;;;;32.70;13.32;;;;;;;7.88;92.94;101590.41;4984457;28;20085;-68
2022/11/30 03:10:38;;;;;;;26.65;10.40;;;;;;;7.92;92.68;101594.03;4996781;28;20038;-67
2022/11/30 03:13:03;;;;;;;33.20;12.38;;;;;;;7.97;92.51;101611.88;4975582;28;20049;-68
2022/11/30 03:15:29;;;;;;;33.60;12.52;;;;;;;8.01;92.50;101610.16;4999043;28;20037;-67
2022/11/30 03:17:54;;;;;;;35.13;10.25;;;;;;;8.03;92.45;101597.22;4984350;28;20038;-68
2022/11/30 03:20:20;;;;;;;37.20;13.15;;;;;;;8.01;92.36;101605.56;4975566;28;20034;-68
2022/11/30 03:22:45;;;;;;;33.95;11.20;;;;;;;8.00;92.97;101603.19;4981836;28;20634;-67
2022/11/30 03:25:11;;;;;;;31.67;11.30;;;;;;;8.00;92.87;101598.63;4978002;28;20058;-67
2022/11/30 03:27:36;;;;;;;34.42;12.63;;;;;;;7.94;92.89;101610.59;4979308;28;20038;-68
2022/11/30 03:30:02;;;;;;;34.67;13.23;;;;;;;7.97;92.66;101612.66;4984130;28;20058;-68
2022/11/30 03:32:29;;;;;;;37.80;11.55;;;;;;;8.02;92.86;101609.81;4988213;28;20109;-68
2022/11/30 03:34:55;;;;;;;36.30;13.02;;;;;;;8.17;91.19;101614.72;4984324;28;20042;-68
2022/11/30 03:37:20;;;;;;;26.70;11.20;;;;;;;8.08;91.72;101613.94;4981379;28;20046;-68
2022/11/30 03:39:46;;;;;;;37.30;11.85;;;;;;;7.83;92.79;101613.88;4983998;28;20486;-68
2022/11/30 03:42:14;;;;;;;32.35;11.60;;;;;;;7.87;93.03;101617.53;4978270;28;20336;-67
2022/11/30 03:44:39;;;;;;;46.33;12.98;;;;;;;7.91;93.15;101616.59;4975294;28;20405;-67
2022/11/30 03:47:05;;;;;;;34.95;12.52;;;;;;;7.89;93.24;101612.66;4981689;28;20045;-67
2022/11/30 03:49:30;;;;;;;37.80;11.18;;;;;;;7.95;93.18;101612.19;4992793;28;20038;-67
2022/11/30 03:51:56;;;;;;;31.05;11.75;;;;;;;7.92;93.24;101612.00;4986358;28;20491;-68
2022/11/30 03:54:21;;;;;;;32.72;11.02;;;;;;;7.90;93.14;101606.16;4979386;28;20041;-67
2022/11/30 03:56:47;;;;;;;30.45;10.38;;;;;;;7.90;93.43;101615.00;4978621;28;20031;-68
2022/11/30 03:59:12;;;;;;;30.15;13.15;;;;;;;7.94;93.08;101617.84;4978770;28;20491;-68
2022/11/30 04:01:39;;;;;;;31.23;10.65;;;;;;;7.94;93.11;101618.66;4993987;28;20048;-67
2022/11/30 04:04:06;;;;;;;31.95;11.80;;;;;;;7.97;93.13;101622.59;4993010;28;20101;-68
2022/11/30 04:06:33;;;;;;;30.63;11.27;;;;;;;7.92;93.33;101614.69;4989455;28;20034;-67
2022/11/30 04:08:58;;;;;;;37.70;12.63;;;;;;;8.00;93.50;101619.28;4984518;28;20061;-68
2022/11/30 04:11:23;;;;;;;28.65;10.57;;;;;;;7.94;92.94;101609.81;4965625;28;20042;-67
2022/11/30 04:13:49;;;;;;;36.63;11.77;;;;;;;7.95;93.16;101612.19;4991017;28;20029;-67
2022/11/30 04:16:14;;;;;;;44.15;14.57;;;;;;;7.89;93.76;101616.13;4984764;28;20141;-67
2022/11/30 04:18:40;;;;;;;27.23;11.00;;;;;;;7.88;93.77;101609.16;4979860;28;20070;-67
2022/11/30 04:21:06;;;;;;;30.38;10.93;;;;;;;7.97;93.26;101620.72;4985265;28;20042;-68
2022/11/30 04:23:36;;;;;;;36.70;11.63;;;;;;;7.99;92.86;101610.44;4987731;28;20039;-67
2022/11/30 04:26:11;;;;;;;24.23;9.05;;;;;;;7.94;92.86;101615.97;4977425;28;20040;-67
2022/11/30 04:28:36;;;;;;;26.17;11.65;;;;;;;7.93;92.71;101619.75;4975297;28;20042;-67
2022/11/30 04:31:02;;;;;;;27.13;10.32;;;;;;;7.88;93.22;101622.56;4981041;28;20026;-67
2022/11/30 04:33:28;;;;;;;32.33;13.07;;;;;;;7.79;93.41;101620.97;4980193;28;20092;-67
2022/11/30 04:35:56;;;;;;;30.65;10.60;;;;;;;7.90;93.37;101627.63;4988226;28;20042;-67
2022/11/30 04:38:22;;;;;;;41.85;10.88;;;;;;;7.87;93.87;101614.84;4980720;28;20107;-67
2022/11/30 04:40:48;;;;;;;29.75;10.80;;;;;;;7.85;93.71;101623.22;4957603;28;20487;-68
2022/11/30 04:43:14;;;;;;;29.08;11.68;;;;;;;7.86;93.94;101619.41;4976962;28;20114;-67
2022/11/30 04:45:39;;;;;;;29.50;11.13;;;;;;;7.93;93.84;101621.66;4987430;28;20750;-67
2022/11/30 04:48:06;;;;;;;23.00;10.65;;;;;;;8.00;93.92;101619.28;4978211;28;20038;-67
2022/11/30 04:50:32;;;;;;;29.58;10.95;;;;;;;7.94;93.46;101615.16;4981790;28;20038;-67
2022/11/30 04:52:57;;;;;;;29.42;10.68;;;;;;;7.88;93.79;101619.09;4981887;28;20038;-67
2022/11/30 04:55:23;;;;;;;27.15;11.52;;;;;;;8.00;93.58;101616.59;4979605;28;20045;-67
2022/11/30 04:57:49;;;;;;;30.65;11.00;;;;;;;7.97;93.42;101633.31;4973892;28;20030;-67
2022/11/30 05:00:16;;;;;;;37.20;10.52;;;;;;;7.95;93.72;101627.50;4994949;28;20112;-67
2022/11/30 05:02:42;;;;;;;34.35;11.63;;;;;;;8.00;93.39;101628.13;4993723;28;20050;-67
2022/11/30 05:05:08;;;;;;;25.80;10.90;;;;;;;7.93;93.24;101624.31;4994099;28;20602;-67
2022/11/30 05:07:34;;;;;;;26.38;10.38;;;;;;;7.90;93.87;101632.97;4986626;28;20488;-67
2022/11/30 05:09:59;;;;;;;31.80;12.02;;;;;;;7.91;94.05;101629.22;4988422;28;20038;-67
2022/11/30 05:12:24;;;;;;;36.40;11.98;;;;;;;7.94;93.92;101642.78;4978621;28;20030;-67
2022/11/30 05:14:50;;;;;;;27.42;11.02;;;;;;;7.98;93.84;101642.94;4981317;28;20752;-67
2022/11/30 05:17:15;;;;;;;37.55;11.88;;;;;;;8.01;93.83;101642.34;4976337;28;20348;-67
2022/11/30 05:19:41;;;;;;;28.77;10.80;;;;;;;8.02;93.40;101646.56;4962514;28;20031;-67
2022/11/30 05:22:06;;;;;;;32.38;10.27;;;;;;;8.02;93.61;101642.00;4974436;28;20066;-67
2022/11/30 05:24:35;;;;;;;28.83;9.50;;;;;;;8.00;93.39;101649.56;4980077;28;20042;-68
2022/11/30 05:27:01;;;;;;;27.67;10.60;;;;;;;8.01;93.55;101645.00;4981085;28;20038;-68
2022/11/30 05:29:26;;;;;;;21.08;9.70;;;;;;;8.06;93.90;101647.53;4984500;28;20037;-67
2022/11/30 05:31:52;;;;;;;28.27;10.93;;;;;;;8.05;93.23;101656.69;4992384;28;20049;-67
2022/11/30 05:34:17;;;;;;;34.75;11.38;;;;;;;8.08;93.25;101654.19;4982384;28;20134;-68
2022/11/30 05:36:43;;;;;;;27.95;9.25;;;;;;;8.09;93.11;101655.75;4973555;28;20029;-67
2022/11/30 05:39:08;;;;;;;35.75;11.05;;;;;;;8.13;93.37;101662.06;4990950;28;20034;-67
2022/11/30 05:41:34;;;;;;;37.33;13.52;;;;;;;8.09;93.60;101669.16;4981270;28;20092;-67
2022/11/30 05:43:59;;;;;;;30.20;11.57;;;;;;;8.05;93.39;101675.47;4989455;28;20043;-67
2022/11/30 05:46:25;;;;;;;29.92;10.02;;;;;;;8.02;93.47;101674.19;4956588;28;20039;-67
2022/11/30 05:48:50;;;;;;;26.02;11.13;;;;;;;8.01;93.61;101669.91;4988494;28;20038;-67
2022/11/30 05:51:18;;;;;;;26.88;9.40;;;;;;;7.99;93.72;101674.81;4979267;28;20428;-67
2022/11/30 05:53:44;;;;;;;26.42;10.13;;;;;;;8.04;93.33;101673.88;4995275;28;20065;-68
2022/11/30 05:56:18;;;;;;;28.88;11.15;;;;;;;8.04;93.41;101673.88;4974606;28;20490;-68
2022/11/30 05:58:45;;;;;;;20.80;8.40;;;;;;;8.01;93.38;101671.84;4986778;28;20034;-69
2022/11/30 06:01:22;;;;;;;29.55;10.70;;;;;;;8.07;93.61;101678.63;4985808;28;20040;-68
2022/11/30 06:03:48;;;;;;;20.95;9.48;;;;;;;8.05;93.65;101688.88;4985278;28;20039;-68
2022/11/30 06:06:14;;;;;;;21.75;9.80;;;;;;;8.05;93.02;101676.25;4985798;28;20048;-68
2022/11/30 06:08:40;;;;;;;27.85;9.40;;;;;;;8.02;93.34;101684.13;4993195;28;20034;-68
2022/11/30 06:11:05;;;;;;;24.23;8.77;;;;;;;8.00;93.53;101689.81;4986160;28;20113;-69
2022/11/30 06:13:33;;;;;;;24.90;9.32;;;;;;;8.05;93.40;101694.25;4986419;28;20046;-69
2022/11/30 06:16:00;;;;;;;18.02;8.93;;;;;;;8.09;93.27;101700.56;4998534;28;20033;-68
2022/11/30 06:18:26;;;;;;;21.42;9.20;;;;;;;8.02;93.24;101697.53;4966643;28;20454;-67
2022/11/30 06:20:52;;;;;;;29.00;10.35;;;;;;;8.10;93.17;101699.47;4964614;28;20156;-67
2022/11/30 06:23:17;;;;;;;28.38;10.70;;;;;;;8.10;92.93;101692.22;4988328;28;20034;-68
2022/11/30 06:25:43;;;;;;;23.23;9.40;;;;;;;8.05;93.08;101697.69;4994410;28;20046;-68
2022/11/30 06:28:09;;;;;;;21.02;8.27;;;;;;;8.05;92.82;101695.03;4992511;28;20100;-67
2022/11/30 06:30:34;;;;;;;22.00;8.68;;;;;;;8.07;93.22;101705.47;4971704;28;20045;-67
2022/11/30 06:33:00;;;;;;;21.65;8.60;;;;;;;8.04;92.44;101700.69;4987044;28;20034;-68
2022/11/30 06:35:25;;;;;;;23.10;9.23;;;;;;;7.97;93.25;101711.91;4997847;28;20463;-69
2022/11/30 06:37:51;;;;;;;24.85;8.98;;;;;;;7.94;93.77;101709.81;4995382;28;20031;-68
2022/11/30 06:40:16;;;;;;;22.73;9.20;;;;;;;7.94;93.79;101706.34;4984416;28;20046;-68
2022/11/30 06:42:42;;;;;;;24.02;8.25;;;;;;;8.00;93.65;101711.25;5006046;28;20121;-68
2022/11/30 06:45:08;;;;;;;25.58;9.88;;;;;;;8.02;93.76;101701.03;4977342;28;20038;-68
2022/11/30 06:47:33;;;;;;;20.88;8.32;;;;;;;8.04;93.20;101708.75;4984753;28;20053;-69
2022/11/30 06:49:59;;;;;;;20.20;8.60;;;;;;;7.97;93.76;101708.41;4993889;28;20036;-66
2022/11/30 06:52:44;;;;;;;20.15;8.50;;;;;;;7.88;93.82;101707.59;4995363;28;20021;-68
2022/11/30 06:55:10;;;;;;;11.18;7.25;;;;;;;7.86;93.57;101710.56;4921080;28;20122;-67
2022/11/30 06:57:36;;;;;;;31.50;10.75;;;;;;;7.86;93.71;101710.56;4932197;29;20409;-68
2022/11/30 07:00:03;;;;;;;25.48;8.60;;;;;;;7.98;93.23;101701.94;4936438;28;20043;-67
2022/11/30 07:02:28;;;;;;;22.65;8.68;;;;;;;7.96;93.50;101715.66;4941157;28;20094;-67
2022/11/30 07:04:54;;;;;;;25.30;9.60;;;;;;;7.97;93.75;101711.91;4944204;28;20336;-67
2022/11/30 07:07:19;;;;;;;24.33;8.35;;;;;;;8.02;93.34;101719.00;4952349;28;20156;-67
2022/11/30 07:09:45;;;;;;;19.42;8.73;;;;;;;8.04;93.56;101717.59;4956701;28;20027;-68
2022/11/30 07:12:10;;;;;;;17.90;6.90;;;;;;;8.01;93.46;101722.78;4954042;28;20058;-66
2022/11/30 07:14:36;;;;;;;21.25;9.13;;;;;;;8.02;93.35;101721.69;4936255;29;20023;-66
2022/11/30 07:17:03;;;;;;;17.48;7.30;;;;;;;7.92;93.83;101719.28;4937176;28;20544;-67
2022/11/30 07:19:30;;;;;;;14.52;7.93;;;;;;;7.91;94.15;101728.44;4917128;29;20070;-66
2022/11/30 07:21:55;;;;;;;17.35;7.50;;;;;;;7.94;94.22;101723.22;4944892;28;20034;-67
2022/11/30 07:27:06;;;;;;;18.25;8.07;;;;;;;8.01;93.61;101733.53;4948645;28;20590;-67
2022/11/30 07:29:31;;;;;;;22.88;8.70;;;;;;;8.01;93.76;101722.78;4940960;28;20106;-67
2022/11/30 07:31:57;;;;;;;16.38;8.23;;;;;;;7.98;93.87;101728.75;4959964;28;20058;-66
2022/11/30 07:34:43;;;;;;;16.95;7.53;;;;;;;7.97;94.40;101722.63;4978977;28;20125;-67
2022/11/30 07:37:08;;;;;;;19.20;7.53;;;;;;;8.02;94.14;101727.84;4928677;29;20048;-66
2022/11/30 07:39:33;;;;;;;23.17;8.95;;;;;;;7.99;93.83;101730.34;4895746;29;20485;-66
2022/11/30 07:41:59;;;;;;;22.90;8.18;;;;;;;7.92;94.63;101735.38;4922640;29;20574;-66
2022/11/30 07:44:28;;;;;;;17.65;7.57;;;;;;;7.91;94.54;101744.53;4906717;29;20091;-66
2022/11/30 07:46:53;;;;;;;17.20;8.77;;;;;;;7.97;94.62;101743.28;4929943;29;20090;-66
2022/11/30 07:49:19;;;;;;;24.25;8.40;;;;;;;7.97;94.71;101745.97;4927418;29;20055;-66
2022/11/30 07:51:44;;;;;;;16.73;7.68;;;;;;;7.98;94.54;101744.84;4912112;29;20171;-67
2022/11/30 07:54:10;;;;;;;16.55;7.60;;;;;;;7.99;93.90;101743.75;4934434;29;20050;-67
2022/11/30 07:56:35;;;;;;;16.10;7.72;;;;;;;8.02;94.39;101753.88;4919481;29;20043;-66
2022/11/30 07:59:02;;;;;;;13.77;6.78;;;;;;;8.00;93.97;101740.78;4906864;29;20052;-66
2022/11/30 08:01:31;;;;;;;18.50;7.65;;;;;;;7.97;94.23;101737.91;4929332;29;20031;-66
2022/11/30 08:03:57;;;;;;;20.77;7.75;;;;;;;7.97;94.87;101745.97;4923606;29;20040;-68
2022/11/30 08:06:26;;;;;;;14.00;6.75;;;;;;;7.95;95.20;101745.47;4922089;29;20178;-68
2022/11/30 08:08:53;;;;;;;15.15;7.38;;;;;;;8.01;94.69;101752.28;4913589;29;20448;-67
2022/11/30 08:11:22;;;;;;;18.50;7.00;;;;;;;7.93;94.25;101753.84;4917234;29;20107;-67
2022/11/30 08:13:47;;;;;;;21.77;7.80;;;;;;;7.93;95.16;101748.47;4917619;28;20052;-67
2022/11/30 08:16:16;;;;;;;14.35;6.57;;;;;;;7.99;94.89;101754.50;4980689;28;20040;-67
2022/11/30 08:18:41;;;;;;;19.05;7.80;;;;;;;8.01;94.17;101755.75;4982216;28;20376;-67
2022/11/30 08:21:09;;;;;;;18.27;7.35;;;;;;;7.97;94.20;101759.38;4982586;28;20046;-67
2022/11/30 08:23:38;;;;;;;12.60;5.88;;;;;;;7.96;94.72;101749.72;4987201;28;20045;-67
2022/11/30 08:26:18;;;;;;;13.63;5.85;;;;;;;7.97;94.58;101757.50;4977165;28;20509;-67
2022/11/30 08:28:45;;;;;;;12.70;6.88;;;;;;;7.92;94.66;101762.97;4990149;28;20121;-67
2022/11/30 08:31:33;;;;;;;13.63;6.38;;;;;;;7.84;93.84;101765.63;4985428;28;20023;-67
2022/11/30 08:34:09;;;;;;;14.93;6.75;;;;;;;7.77;94.66;101763.38;4963736;28;20038;-66
2022/11/30 08:36:35;;;;;;;14.07;6.28;;;;;;;7.89;94.22;101762.81;4985292;28;20045;-66
2022/11/30 08:39:04;;;;;;;10.68;6.05;;;;;;;7.94;94.50;101765.34;4996195;28;20034;-67
2022/11/30 08:41:30;;;;;;;10.80;6.00;;;;;;;7.87;95.16;101762.31;4987874;28;20515;-67
2022/11/30 08:43:56;;;;;;;14.43;7.18;;;;;;;7.53;95.27;101767.50;4993450;28;20046;-66
2022/11/30 08:46:23;;;;;;;16.92;6.60;;;;;;;7.68;96.18;101772.47;4988998;28;20041;-66
2022/11/30 08:48:49;;;;;;;13.35;5.53;;;;;;;7.78;95.62;101777.59;4972897;28;20388;-67
2022/11/30 08:51:17;;;;;;;15.25;6.50;;;;;;;7.90;95.23;101775.91;4975389;28;20049;-69
2022/11/30 08:53:43;;;;;;;14.65;6.65;;;;;;;7.99;94.83;101782.09;4982024;28;20077;-67
2022/11/30 08:56:17;;;;;;;15.45;5.80;;;;;;;7.91;94.90;101782.88;4992639;28;20045;-66
2022/11/30 08:58:43;;;;;;;15.88;6.25;;;;;;;7.87;94.86;101784.56;4991324;28;20449;-67
2022/11/30 09:01:23;;;;;;;9.55;5.32;;;;;;;7.90;95.18;101792.00;4983157;28;20070;-67
2022/11/30 09:03:52;;;;;;;10.73;5.90;;;;;;;7.94;95.23;101800.19;4988508;28;20378;-67
2022/11/30 09:06:23;;;;;;;14.55;6.53;;;;;;;8.04;94.56;101803.44;4980249;28;20022;-67
2022/11/30 09:08:49;;;;;;;;;;;;;;;8.00;94.57;101797.09;4988843;28;20030;-67
2022/11/30 09:11:18;;;;;;;16.50;5.97;;;;;;;8.00;94.78;101796.28;4993857;28;19925;-66
2022/11/30 09:13:44;;;;;;;20.42;7.10;;;;;;;8.02;94.99;101796.78;4991551;28;20026;-68
2022/11/30 09:16:11;;;;;;;9.50;5.85;;;;;;;8.08;94.44;101807.06;4981851;28;20238;-67
2022/11/30 09:18:36;;;;;;;13.77;6.22;;;;;;;8.05;94.40;101806.91;4989833;28;20490;-66
2022/11/30 09:21:07;;;;;;;18.48;7.60;;;;;;;8.01;94.00;101798.66;4989614;28;20086;-66
2022/11/30 09:23:33;;;;;;;16.13;7.15;;;;;;;8.06;93.94;101811.97;4987318;28;20038;-67
2022/11/30 09:26:01;;;;;;;19.23;6.50;;;;;;;7.99;94.66;101808.13;4991345;28;20041;-66
2022/11/30 09:28:29;;;;;;;12.68;6.65;;;;;;;7.99;94.06;101818.88;5000327;28;20101;-66
2022/11/30 09:30:59;;;;;;;17.67;7.47;;;;;;;8.03;94.14;101811.78;4981145;28;20479;-66
2022/11/30 09:33:25;;;;;;;17.83;7.03;;;;;;;8.04;94.49;101816.03;4976716;28;20511;-67
2022/11/30 09:35:58;;;;;;;12.88;6.30;;;;;;;7.98;94.67;101814.59;4986530;28;20026;-66
2022/11/30 09:38:24;;;;;;;13.52;6.68;;;;;;;7.98;94.29;101815.38;4976093;28;20034;-67
2022/11/30 09:40:55;;;;;;;16.13;6.72;;;;;;;8.02;94.49;101820.91;4987781;28;20034;-66
2022/11/30 09:43:29;;;;;;;15.60;6.68;;;;;;;8.03;94.11;101815.25;4978587;28;20047;-67
2022/11/30 09:46:02;;;;;;;17.35;7.45;;;;;;;8.03;94.48;101817.91;4988430;28;20038;-66
2022/11/30 09:48:53;;;;;;;21.23;7.85;;;;;;;8.09;94.28;101821.28;4976819;28;20467;-66
2022/11/30 09:51:30;;;;;;;15.38;6.18;;;;;;;8.05;94.29;101815.72;4997577;28;20330;-66
2022/11/30 09:54:01;;;;;;;17.08;7.60;;;;;;;8.03;94.25;101817.91;4984262;28;20068;-66
2022/11/30 09:56:36;;;;;;;12.27;5.78;;;;;;;7.98;94.53;101819.94;4983237;28;20041;-66
2022/11/30 09:59:05;;;;;;;14.20;8.20;;;;;;;8.01;94.42;101822.03;4977139;28;20113;-66
2022/11/30 10:01:30;;;;;;;15.30;7.07;;;;;;;7.99;94.26;101811.59;4980716;28;20026;-66
2022/11/30 10:03:57;;;;;;;16.73;7.45;;;;;;;8.13;93.52;101820.34;4988840;28;20033;-67
2022/11/30 10:06:43;;;;;;;15.75;7.40;;;;;;;8.08;94.05;101811.63;4986307;28;20442;-66
2022/11/30 10:09:31;;;;;;;18.35;7.60;;;;;;;8.08;94.23;101815.13;4983851;28;20034;-67
2022/11/30 10:12:10;;;;;;;16.83;7.15;;;;;;;8.09;94.10;101810.56;4987149;28;20475;-66
2022/11/30 10:14:36;;;;;;;16.45;8.38;;;;;;;8.08;93.96;101815.13;4979565;28;20053;-66
2022/11/30 10:17:22;;;;;;;22.05;7.80;;;;;;;8.06;94.42;101811.97;4979050;28;20110;-66
2022/11/30 10:20:11;;;;;;;19.00;6.80;;;;;;;8.01;94.32;101819.34;4984675;28;20621;-66
2022/11/30 10:23:00;;;;;;;17.13;7.88;;;;;;;8.05;94.44;101817.63;4979606;28;20070;-66
2022/11/30 10:25:28;;;;;;;18.98;8.15;;;;;;;8.00;94.38;101810.50;4981608;28;20426;-66
2022/11/30 10:28:06;;;;;;;17.10;6.90;;;;;;;8.02;94.61;101811.00;4974760;28;20034;-67
2022/11/30 10:30:35;;;;;;;20.25;7.90;;;;;;;8.04;94.89;101813.34;4973892;28;20034;-67
2022/11/30 10:33:15;;;;;;;22.40;8.25;;;;;;;8.03;94.81;101809.88;4990279;28;20050;-66
2022/11/30 10:35:47;;;;;;;16.92;8.05;;;;;;;8.07;94.57;101810.06;4990865;28;20128;-66
2022/11/30 10:38:27;;;;;;;21.65;8.73;;;;;;;8.08;94.70;101815.13;4989541;28;20092;-66
2022/11/30 10:41:02;;;;;;;24.80;8.48;;;;;;;8.10;94.76;101812.91;4975510;28;20047;-65
2022/11/30 10:44:02;;;;;;;19.95;8.73;;;;;;;8.11;94.51;101814.50;4983555;28;20026;-66
2022/11/30 10:46:35;;;;;;;13.00;6.53;;;;;;;8.00;94.50;101812.38;4986712;28;20041;-66
2022/11/30 10:49:05;;;;;;;17.80;7.28;;;;;;;7.95;95.36;101804.47;4961786;28;20037;-66
2022/11/30 10:51:36;;;;;;;22.17;9.20;;;;;;;8.01;95.54;101814.75;4985921;28;20041;-66
2022/11/30 10:54:11;;;;;;;20.73;9.23;;;;;;;8.05;94.97;101805.00;4991745;28;20028;-66
2022/11/30 10:56:37;;;;;;;22.35;9.73;;;;;;;8.09;94.96;101794.47;4991154;28;20042;-66
2022/11/30 10:59:10;;;;;;;21.15;7.63;;;;;;;8.09;95.18;101799.81;4981467;28;20487;-66
2022/11/30 11:01:38;;;;;;;25.77;8.40;;;;;;;8.13;94.98;101800.75;4982373;28;20048;-66
2022/11/30 11:04:07;;;;;;;20.90;8.25;;;;;;;8.15;95.23;101798.56;4989280;28;20038;-66
2022/11/30 11:06:33;;;;;;;27.65;9.60;;;;;;;8.14;94.64;101800.47;4968770;28;20042;-66
2022/11/30 11:09:23;;;;;;;25.27;9.00;;;;;;;8.18;94.42;101800.66;4981197;28;20034;-66
2022/11/30 11:11:53;;;;;;;16.38;6.90;;;;;;;8.11;95.21;101803.75;4980356;28;20578;-66
2022/11/30 11:14:22;;;;;;;20.88;8.18;;;;;;;8.07;95.29;101793.97;4986817;28;20513;-67
2022/11/30 11:16:53;;;;;;;20.95;9.23;;;;;;;8.10;95.68;101807.56;4991366;28;20391;-66
2022/11/30 11:19:40;;;;;;;26.13;9.52;;;;;;;8.14;95.48;101807.72;4987835;28;20046;-67
2022/11/30 11:22:12;;;;;;;27.83;8.77;;;;;;;8.03;95.11;101807.19;4990039;28;20040;-66
2022/11/30 11:24:37;;;;;;;;;;;;;;;8.01;95.78;101808.63;4990136;28;20038;-67
2022/11/30 11:27:05;;;;;;;18.55;7.97;;;;;;;8.12;95.83;101802.69;4989382;28;19914;-67
2022/11/30 11:29:33;;;;;;;22.98;8.27;;;;;;;8.17;95.66;101812.47;4964864;28;20041;-67
2022/11/30 11:32:16;;;;;;;26.65;9.32;;;;;;;8.23;95.05;101810.47;4985304;28;20553;-67